sensor_id;sensor_type;location;lat;lon;timestamp;temperature;humidity
47414;DHT22;33163;0.000;0.000;2023-07-22T00:01:07;21.90;66.20
47414;DHT22;33163;0.000;0.000;2023-07-22T00:03:35;21.90;66.10
47414;DHT22;33163;0.000;0.000;2023-07-22T00:06:02;21.90;66.10
47414;DHT22;33163;0.000;0.000;2023-07-22T00:08:29;21.90;66.10
47414;DHT22;33163;0.000;0.000;2023-07-22T00:10:55;21.90;66.10
47414;DHT22;33163;0.000;0.000;2023-07-22T00:13:22;21.90;66.10
47414;DHT22;33163;0.000;0.000;2023-07-22T00:15:48;21.90;66.10
47414;DHT22;33163;0.000;0.000;2023-07-22T00:18:15;21.90;66.10
47414;DHT22;33163;0.000;0.000;2023-07-22T00:20:44;21.90;66.00
47414;DHT22;33163;0.000;0.000;2023-07-22T00:23:10;21.90;66.10
47414;DHT22;33163;0.000;0.000;2023-07-22T00:25:37;21.90;66.00
47414;DHT22;33163;0.000;0.000;2023-07-22T00:28:04;21.90;66.00
47414;DHT22;33163;0.000;0.000;2023-07-22T00:30:30;21.90;66.00
47414;DHT22;33163;0.000;0.000;2023-07-22T00:32:57;21.90;66.00
47414;DHT22;33163;0.000;0.000;2023-07-22T00:35:23;21.90;66.00
47414;DHT22;33163;0.000;0.000;2023-07-22T00:37:52;21.90;66.00
47414;DHT22;33163;0.000;0.000;2023-07-22T00:40:18;21.90;66.00
47414;DHT22;33163;0.000;0.000;2023-07-22T00:42:45;21.90;66.00
47414;DHT22;33163;0.000;0.000;2023-07-22T00:45:11;21.90;66.00
47414;DHT22;33163;0.000;0.000;2023-07-22T00:47:38;21.90;66.00
47414;DHT22;33163;0.000;0.000;2023-07-22T00:50:06;21.90;66.00
47414;DHT22;33163;0.000;0.000;2023-07-22T00:52:33;21.90;66.00
47414;DHT22;33163;0.000;0.000;2023-07-22T00:55:01;21.90;66.00
47414;DHT22;33163;0.000;0.000;2023-07-22T00:57:27;21.90;66.00
47414;DHT22;33163;0.000;0.000;2023-07-22T00:59:54;21.90;65.90
47414;DHT22;33163;0.000;0.000;2023-07-22T01:02:21;21.90;65.90
47414;DHT22;33163;0.000;0.000;2023-07-22T01:04:47;21.90;66.00
47414;DHT22;33163;0.000;0.000;2023-07-22T01:07:15;21.90;65.90
47414;DHT22;33163;0.000;0.000;2023-07-22T01:09:42;21.90;65.90
47414;DHT22;33163;0.000;0.000;2023-07-22T01:12:10;21.90;65.90
47414;DHT22;33163;0.000;0.000;2023-07-22T01:14:37;21.90;65.90
47414;DHT22;33163;0.000;0.000;2023-07-22T01:17:05;21.90;65.90
47414;DHT22;33163;0.000;0.000;2023-07-22T01:19:32;21.90;65.90
47414;DHT22;33163;0.000;0.000;2023-07-22T01:21:59;21.90;65.90
47414;DHT22;33163;0.000;0.000;2023-07-22T01:24:27;21.90;65.90
47414;DHT22;33163;0.000;0.000;2023-07-22T01:26:54;21.90;65.80
47414;DHT22;33163;0.000;0.000;2023-07-22T01:29:21;21.90;65.80
47414;DHT22;33163;0.000;0.000;2023-07-22T01:31:48;21.90;65.80
47414;DHT22;33163;0.000;0.000;2023-07-22T01:34:15;21.90;65.80
47414;DHT22;33163;0.000;0.000;2023-07-22T01:36:42;21.90;65.80
47414;DHT22;33163;0.000;0.000;2023-07-22T01:39:08;21.90;65.80
47414;DHT22;33163;0.000;0.000;2023-07-22T01:41:37;21.90;65.80
47414;DHT22;33163;0.000;0.000;2023-07-22T01:44:04;21.90;65.80
47414;DHT22;33163;0.000;0.000;2023-07-22T01:46:30;21.90;65.80
47414;DHT22;33163;0.000;0.000;2023-07-22T01:48:57;21.90;65.80
47414;DHT22;33163;0.000;0.000;2023-07-22T01:51:24;21.90;65.70
47414;DHT22;33163;0.000;0.000;2023-07-22T01:53:51;21.90;65.70
47414;DHT22;33163;0.000;0.000;2023-07-22T01:56:18;21.80;65.70
47414;DHT22;33163;0.000;0.000;2023-07-22T01:58:47;21.90;65.70
47414;DHT22;33163;0.000;0.000;2023-07-22T02:01:13;21.80;65.70
47414;DHT22;33163;0.000;0.000;2023-07-22T02:03:41;21.80;65.70
47414;DHT22;33163;0.000;0.000;2023-07-22T02:06:07;21.90;65.70
47414;DHT22;33163;0.000;0.000;2023-07-22T02:08:34;21.80;65.60
47414;DHT22;33163;0.000;0.000;2023-07-22T02:11:02;21.90;65.70
47414;DHT22;33163;0.000;0.000;2023-07-22T02:13:29;21.80;65.70
47414;DHT22;33163;0.000;0.000;2023-07-22T02:15:57;21.80;65.60
47414;DHT22;33163;0.000;0.000;2023-07-22T02:18:24;21.80;65.60
47414;DHT22;33163;0.000;0.000;2023-07-22T02:20:50;21.90;65.70
47414;DHT22;33163;0.000;0.000;2023-07-22T02:23:18;21.80;65.60
47414;DHT22;33163;0.000;0.000;2023-07-22T02:25:47;21.80;65.60
47414;DHT22;33163;0.000;0.000;2023-07-22T02:28:14;21.90;65.70
47414;DHT22;33163;0.000;0.000;2023-07-22T02:30:41;21.80;65.60
47414;DHT22;33163;0.000;0.000;2023-07-22T02:33:09;21.80;65.60
47414;DHT22;33163;0.000;0.000;2023-07-22T02:35:35;21.80;65.60
47414;DHT22;33163;0.000;0.000;2023-07-22T02:38:02;21.80;65.60
47414;DHT22;33163;0.000;0.000;2023-07-22T02:40:28;21.80;65.60
47414;DHT22;33163;0.000;0.000;2023-07-22T02:42:55;21.80;65.60
47414;DHT22;33163;0.000;0.000;2023-07-22T02:45:21;21.80;65.60
47414;DHT22;33163;0.000;0.000;2023-07-22T02:47:48;21.80;65.60
47414;DHT22;33163;0.000;0.000;2023-07-22T02:50:16;21.80;65.60
47414;DHT22;33163;0.000;0.000;2023-07-22T02:52:42;21.80;65.60
47414;DHT22;33163;0.000;0.000;2023-07-22T02:55:10;21.80;65.60
47414;DHT22;33163;0.000;0.000;2023-07-22T02:57:37;21.80;65.60
47414;DHT22;33163;0.000;0.000;2023-07-22T03:00:04;21.80;65.60
47414;DHT22;33163;0.000;0.000;2023-07-22T03:02:33;21.80;65.60
47414;DHT22;33163;0.000;0.000;2023-07-22T03:05:00;21.80;65.60
47414;DHT22;33163;0.000;0.000;2023-07-22T03:07:29;21.80;65.50
47414;DHT22;33163;0.000;0.000;2023-07-22T03:09:56;21.80;65.50
47414;DHT22;33163;0.000;0.000;2023-07-22T03:12:22;21.80;65.50
47414;DHT22;33163;0.000;0.000;2023-07-22T03:14:49;21.80;65.60
47414;DHT22;33163;0.000;0.000;2023-07-22T03:17:17;21.80;65.60
47414;DHT22;33163;0.000;0.000;2023-07-22T03:19:43;21.80;65.60
47414;DHT22;33163;0.000;0.000;2023-07-22T03:22:10;21.80;65.60
47414;DHT22;33163;0.000;0.000;2023-07-22T03:24:38;21.80;65.50
47414;DHT22;33163;0.000;0.000;2023-07-22T03:27:05;21.80;65.50
47414;DHT22;33163;0.000;0.000;2023-07-22T03:29:32;21.80;65.50
47414;DHT22;33163;0.000;0.000;2023-07-22T03:31:59;21.80;65.50
47414;DHT22;33163;0.000;0.000;2023-07-22T03:34:26;21.80;65.50
47414;DHT22;33163;0.000;0.000;2023-07-22T03:36:52;21.80;65.50
47414;DHT22;33163;0.000;0.000;2023-07-22T03:39:19;21.80;65.50
47414;DHT22;33163;0.000;0.000;2023-07-22T03:41:47;21.80;65.70
47414;DHT22;33163;0.000;0.000;2023-07-22T03:44:14;21.80;65.40
47414;DHT22;33163;0.000;0.000;2023-07-22T03:46:40;21.80;65.50
47414;DHT22;33163;0.000;0.000;2023-07-22T03:49:07;21.80;65.50
47414;DHT22;33163;0.000;0.000;2023-07-22T03:51:33;21.80;65.40
47414;DHT22;33163;0.000;0.000;2023-07-22T03:54:00;21.80;65.40
47414;DHT22;33163;0.000;0.000;2023-07-22T03:56:27;21.80;66.10
47414;DHT22;33163;0.000;0.000;2023-07-22T03:58:55;21.80;65.40
47414;DHT22;33163;0.000;0.000;2023-07-22T04:01:21;21.80;65.40
47414;DHT22;33163;0.000;0.000;2023-07-22T04:03:48;21.80;65.40
47414;DHT22;33163;0.000;0.000;2023-07-22T04:06:14;21.80;65.40
47414;DHT22;33163;0.000;0.000;2023-07-22T04:08:41;21.80;66.00
47414;DHT22;33163;0.000;0.000;2023-07-22T04:11:07;21.80;65.40
47414;DHT22;33163;0.000;0.000;2023-07-22T04:13:34;21.80;65.40
47414;DHT22;33163;0.000;0.000;2023-07-22T04:16:02;21.80;65.40
47414;DHT22;33163;0.000;0.000;2023-07-22T04:18:29;21.80;65.40
47414;DHT22;33163;0.000;0.000;2023-07-22T04:20:59;21.80;65.40
47414;DHT22;33163;0.000;0.000;2023-07-22T04:23:26;21.80;65.40
47414;DHT22;33163;0.000;0.000;2023-07-22T04:25:52;21.80;65.40
47414;DHT22;33163;0.000;0.000;2023-07-22T04:28:19;21.80;65.40
47414;DHT22;33163;0.000;0.000;2023-07-22T04:30:54;21.80;65.30
47414;DHT22;33163;0.000;0.000;2023-07-22T04:33:22;21.80;65.40
47414;DHT22;33163;0.000;0.000;2023-07-22T04:35:48;21.80;65.40
47414;DHT22;33163;0.000;0.000;2023-07-22T04:38:15;21.80;65.40
47414;DHT22;33163;0.000;0.000;2023-07-22T04:40:42;21.80;65.40
47414;DHT22;33163;0.000;0.000;2023-07-22T04:43:09;21.80;65.40
47414;DHT22;33163;0.000;0.000;2023-07-22T04:45:35;21.80;65.40
47414;DHT22;33163;0.000;0.000;2023-07-22T04:48:05;21.80;65.40
47414;DHT22;33163;0.000;0.000;2023-07-22T04:50:33;21.80;65.40
47414;DHT22;33163;0.000;0.000;2023-07-22T04:53:00;21.80;65.40
47414;DHT22;33163;0.000;0.000;2023-07-22T04:55:26;21.80;65.50
47414;DHT22;33163;0.000;0.000;2023-07-22T04:57:55;21.80;65.40
47414;DHT22;33163;0.000;0.000;2023-07-22T05:00:21;21.80;65.40
47414;DHT22;33163;0.000;0.000;2023-07-22T05:02:48;21.80;65.50
47414;DHT22;33163;0.000;0.000;2023-07-22T05:05:17;21.80;65.50
47414;DHT22;33163;0.000;0.000;2023-07-22T05:07:45;21.80;65.60
47414;DHT22;33163;0.000;0.000;2023-07-22T05:10:13;21.80;65.60
47414;DHT22;33163;0.000;0.000;2023-07-22T05:12:40;21.80;65.50
47414;DHT22;33163;0.000;0.000;2023-07-22T05:15:07;21.80;65.60
47414;DHT22;33163;0.000;0.000;2023-07-22T05:17:34;21.80;66.30
47414;DHT22;33163;0.000;0.000;2023-07-22T05:20:01;21.80;65.60
47414;DHT22;33163;0.000;0.000;2023-07-22T05:22:27;21.70;65.60
47414;DHT22;33163;0.000;0.000;2023-07-22T05:24:55;21.80;65.70
47414;DHT22;33163;0.000;0.000;2023-07-22T05:27:22;21.70;65.60
47414;DHT22;33163;0.000;0.000;2023-07-22T05:29:49;21.70;65.70
47414;DHT22;33163;0.000;0.000;2023-07-22T05:32:15;21.70;65.70
47414;DHT22;33163;0.000;0.000;2023-07-22T05:34:42;21.80;65.80
47414;DHT22;33163;0.000;0.000;2023-07-22T05:37:08;21.70;65.80
47414;DHT22;33163;0.000;0.000;2023-07-22T05:39:35;21.70;65.80
47414;DHT22;33163;0.000;0.000;2023-07-22T05:42:03;21.70;66.60
47414;DHT22;33163;0.000;0.000;2023-07-22T05:44:30;21.70;65.90
47414;DHT22;33163;0.000;0.000;2023-07-22T05:46:56;21.70;65.90
47414;DHT22;33163;0.000;0.000;2023-07-22T05:49:23;21.70;66.00
47414;DHT22;33163;0.000;0.000;2023-07-22T05:51:50;21.70;66.10
47414;DHT22;33163;0.000;0.000;2023-07-22T05:54:17;21.70;66.00
47414;DHT22;33163;0.000;0.000;2023-07-22T05:56:43;21.70;66.00
47414;DHT22;33163;0.000;0.000;2023-07-22T05:59:11;21.80;66.00
47414;DHT22;33163;0.000;0.000;2023-07-22T06:01:38;21.70;66.20
47414;DHT22;33163;0.000;0.000;2023-07-22T06:04:04;21.70;66.10
47414;DHT22;33163;0.000;0.000;2023-07-22T06:06:31;21.70;66.10
47414;DHT22;33163;0.000;0.000;2023-07-22T06:08:57;21.80;66.10
47414;DHT22;33163;0.000;0.000;2023-07-22T06:11:24;21.70;66.10
47414;DHT22;33163;0.000;0.000;2023-07-22T06:13:51;21.70;66.10
47414;DHT22;33163;0.000;0.000;2023-07-22T06:16:19;21.70;66.10
47414;DHT22;33163;0.000;0.000;2023-07-22T06:18:45;21.70;66.10
47414;DHT22;33163;0.000;0.000;2023-07-22T06:21:12;21.70;66.20
47414;DHT22;33163;0.000;0.000;2023-07-22T06:23:38;21.80;66.30
47414;DHT22;33163;0.000;0.000;2023-07-22T06:26:05;21.80;66.30
47414;DHT22;33163;0.000;0.000;2023-07-22T06:28:31;21.80;67.00
47414;DHT22;33163;0.000;0.000;2023-07-22T06:30:58;21.80;66.30
47414;DHT22;33163;0.000;0.000;2023-07-22T06:33:26;21.80;66.30
47414;DHT22;33163;0.000;0.000;2023-07-22T06:35:52;21.80;66.30
47414;DHT22;33163;0.000;0.000;2023-07-22T06:38:19;21.80;66.40
47414;DHT22;33163;0.000;0.000;2023-07-22T06:40:46;21.70;66.40
47414;DHT22;33163;0.000;0.000;2023-07-22T06:43:12;21.70;66.50
47414;DHT22;33163;0.000;0.000;2023-07-22T06:45:39;21.80;66.60
47414;DHT22;33163;0.000;0.000;2023-07-22T06:48:05;21.70;66.60
47414;DHT22;33163;0.000;0.000;2023-07-22T06:50:33;21.80;66.60
47414;DHT22;33163;0.000;0.000;2023-07-22T06:53:00;21.80;66.60
47414;DHT22;33163;0.000;0.000;2023-07-22T06:55:27;21.80;66.60
47414;DHT22;33163;0.000;0.000;2023-07-22T06:57:55;21.80;66.60
47414;DHT22;33163;0.000;0.000;2023-07-22T07:00:21;21.80;66.80
47414;DHT22;33163;0.000;0.000;2023-07-22T07:02:48;21.80;66.80
47414;DHT22;33163;0.000;0.000;2023-07-22T07:05:15;21.80;66.90
47414;DHT22;33163;0.000;0.000;2023-07-22T07:07:43;21.80;66.80
47414;DHT22;33163;0.000;0.000;2023-07-22T07:10:10;21.80;66.90
47414;DHT22;33163;0.000;0.000;2023-07-22T07:12:36;21.70;67.00
47414;DHT22;33163;0.000;0.000;2023-07-22T07:15:03;21.70;67.00
47414;DHT22;33163;0.000;0.000;2023-07-22T07:17:30;21.80;67.10
47414;DHT22;33163;0.000;0.000;2023-07-22T07:19:56;21.80;67.00
47414;DHT22;33163;0.000;0.000;2023-07-22T07:22:23;21.80;67.20
47414;DHT22;33163;0.000;0.000;2023-07-22T07:24:51;21.80;67.10
47414;DHT22;33163;0.000;0.000;2023-07-22T07:27:17;21.80;67.10
47414;DHT22;33163;0.000;0.000;2023-07-22T07:29:44;21.80;67.40
47414;DHT22;33163;0.000;0.000;2023-07-22T07:32:10;21.70;68.10
47414;DHT22;33163;0.000;0.000;2023-07-22T07:34:37;21.70;69.60
47414;DHT22;33163;0.000;0.000;2023-07-22T07:37:04;21.70;69.90
47414;DHT22;33163;0.000;0.000;2023-07-22T07:39:31;21.70;70.00
47414;DHT22;33163;0.000;0.000;2023-07-22T07:41:59;21.70;70.50
47414;DHT22;33163;0.000;0.000;2023-07-22T07:44:25;21.70;71.10
47414;DHT22;33163;0.000;0.000;2023-07-22T07:46:52;21.70;71.00
47414;DHT22;33163;0.000;0.000;2023-07-22T07:49:18;21.70;71.00
47414;DHT22;33163;0.000;0.000;2023-07-22T07:51:45;21.70;71.20
47414;DHT22;33163;0.000;0.000;2023-07-22T07:54:11;21.70;71.10
47414;DHT22;33163;0.000;0.000;2023-07-22T07:56:38;21.70;71.10
47414;DHT22;33163;0.000;0.000;2023-07-22T07:59:06;21.80;71.30
47414;DHT22;33163;0.000;0.000;2023-07-22T08:01:34;21.70;71.50
47414;DHT22;33163;0.000;0.000;2023-07-22T08:04:02;21.70;71.50
47414;DHT22;33163;0.000;0.000;2023-07-22T08:06:29;21.70;71.60
47414;DHT22;33163;0.000;0.000;2023-07-22T08:08:55;21.60;71.70
47414;DHT22;33163;0.000;0.000;2023-07-22T08:11:22;21.70;71.90
47414;DHT22;33163;0.000;0.000;2023-07-22T08:13:48;21.60;72.00
47414;DHT22;33163;0.000;0.000;2023-07-22T08:16:18;21.70;71.90
47414;DHT22;33163;0.000;0.000;2023-07-22T08:18:45;21.70;71.60
47414;DHT22;33163;0.000;0.000;2023-07-22T08:21:12;21.60;71.60
47414;DHT22;33163;0.000;0.000;2023-07-22T08:23:39;21.60;71.00
47414;DHT22;33163;0.000;0.000;2023-07-22T08:26:05;21.60;70.80
47414;DHT22;33163;0.000;0.000;2023-07-22T08:28:32;21.60;70.50
47414;DHT22;33163;0.000;0.000;2023-07-22T08:30:59;21.60;70.30
47414;DHT22;33163;0.000;0.000;2023-07-22T08:33:28;21.60;70.50
47414;DHT22;33163;0.000;0.000;2023-07-22T08:35:55;21.60;70.10
47414;DHT22;33163;0.000;0.000;2023-07-22T08:38:21;21.60;70.20
47414;DHT22;33163;0.000;0.000;2023-07-22T08:40:48;21.60;70.90
47414;DHT22;33163;0.000;0.000;2023-07-22T08:43:15;21.60;70.00
47414;DHT22;33163;0.000;0.000;2023-07-22T08:45:44;21.60;70.10
47414;DHT22;33163;0.000;0.000;2023-07-22T08:48:11;21.60;69.90
47414;DHT22;33163;0.000;0.000;2023-07-22T08:50:41;21.60;69.60
47414;DHT22;33163;0.000;0.000;2023-07-22T08:53:08;21.70;69.70
47414;DHT22;33163;0.000;0.000;2023-07-22T08:55:36;21.70;69.70
47414;DHT22;33163;0.000;0.000;2023-07-22T08:58:05;21.70;69.50
47414;DHT22;33163;0.000;0.000;2023-07-22T09:00:33;21.60;69.10
47414;DHT22;33163;0.000;0.000;2023-07-22T09:03:00;21.60;68.90
47414;DHT22;33163;0.000;0.000;2023-07-22T09:05:27;21.60;68.40
47414;DHT22;33163;0.000;0.000;2023-07-22T09:07:55;21.60;68.30
47414;DHT22;33163;0.000;0.000;2023-07-22T09:10:22;21.60;68.50
47414;DHT22;33163;0.000;0.000;2023-07-22T09:12:49;21.60;68.20
47414;DHT22;33163;0.000;0.000;2023-07-22T09:15:16;21.60;67.70
47414;DHT22;33163;0.000;0.000;2023-07-22T09:17:44;21.60;67.90
47414;DHT22;33163;0.000;0.000;2023-07-22T09:20:11;21.60;67.70
47414;DHT22;33163;0.000;0.000;2023-07-22T09:22:42;21.60;67.20
47414;DHT22;33163;0.000;0.000;2023-07-22T09:25:14;21.60;67.20
47414;DHT22;33163;0.000;0.000;2023-07-22T09:27:41;21.60;67.20
47414;DHT22;33163;0.000;0.000;2023-07-22T09:32:49;21.50;69.30
47414;DHT22;33163;0.000;0.000;2023-07-22T09:35:16;21.50;69.70
47414;DHT22;33163;0.000;0.000;2023-07-22T09:37:43;21.50;70.60
47414;DHT22;33163;0.000;0.000;2023-07-22T09:40:15;21.50;72.30
47414;DHT22;33163;0.000;0.000;2023-07-22T09:42:43;21.40;73.10
47414;DHT22;33163;0.000;0.000;2023-07-22T09:45:10;21.30;73.90
47414;DHT22;33163;0.000;0.000;2023-07-22T09:47:39;21.30;74.40
47414;DHT22;33163;0.000;0.000;2023-07-22T09:50:06;21.30;74.90
47414;DHT22;33163;0.000;0.000;2023-07-22T09:52:32;21.20;75.20
47414;DHT22;33163;0.000;0.000;2023-07-22T09:54:59;21.20;75.40
47414;DHT22;33163;0.000;0.000;2023-07-22T09:57:27;21.20;75.20
47414;DHT22;33163;0.000;0.000;2023-07-22T09:59:54;21.30;75.20
47414;DHT22;33163;0.000;0.000;2023-07-22T10:02:21;21.30;75.10
47414;DHT22;33163;0.000;0.000;2023-07-22T10:04:48;21.30;75.30
47414;DHT22;33163;0.000;0.000;2023-07-22T10:07:17;21.30;74.90
47414;DHT22;33163;0.000;0.000;2023-07-22T10:09:44;21.30;75.00
47414;DHT22;33163;0.000;0.000;2023-07-22T10:12:12;21.30;74.90
47414;DHT22;33163;0.000;0.000;2023-07-22T10:14:41;21.40;74.80
47414;DHT22;33163;0.000;0.000;2023-07-22T10:17:08;21.30;74.70
47414;DHT22;33163;0.000;0.000;2023-07-22T10:19:36;21.40;74.50
47414;DHT22;33163;0.000;0.000;2023-07-22T10:22:03;21.40;74.10
47414;DHT22;33163;0.000;0.000;2023-07-22T10:24:29;21.30;74.10
47414;DHT22;33163;0.000;0.000;2023-07-22T10:26:57;21.40;74.00
47414;DHT22;33163;0.000;0.000;2023-07-22T10:29:24;21.40;74.00
47414;DHT22;33163;0.000;0.000;2023-07-22T10:31:54;21.40;74.10
47414;DHT22;33163;0.000;0.000;2023-07-22T10:34:21;21.40;74.20
47414;DHT22;33163;0.000;0.000;2023-07-22T10:36:47;21.40;74.00
47414;DHT22;33163;0.000;0.000;2023-07-22T10:39:23;21.40;74.30
47414;DHT22;33163;0.000;0.000;2023-07-22T10:41:50;21.40;74.40
47414;DHT22;33163;0.000;0.000;2023-07-22T10:44:25;21.40;73.70
47414;DHT22;33163;0.000;0.000;2023-07-22T10:46:57;21.30;73.70
47414;DHT22;33163;0.000;0.000;2023-07-22T10:49:27;21.40;73.30
47414;DHT22;33163;0.000;0.000;2023-07-22T10:52:09;21.30;72.60
47414;DHT22;33163;0.000;0.000;2023-07-22T10:54:36;21.30;72.80
47414;DHT22;33163;0.000;0.000;2023-07-22T10:57:03;21.30;72.70
47414;DHT22;33163;0.000;0.000;2023-07-22T10:59:32;21.40;72.70
47414;DHT22;33163;0.000;0.000;2023-07-22T11:02:00;21.30;72.40
47414;DHT22;33163;0.000;0.000;2023-07-22T11:04:26;21.30;71.60
47414;DHT22;33163;0.000;0.000;2023-07-22T11:07:03;21.30;71.80
47414;DHT22;33163;0.000;0.000;2023-07-22T11:09:33;21.30;72.00
47414;DHT22;33163;0.000;0.000;2023-07-22T11:12:00;21.30;71.80
47414;DHT22;33163;0.000;0.000;2023-07-22T11:14:27;21.30;71.20
47414;DHT22;33163;0.000;0.000;2023-07-22T11:16:54;21.30;71.50
47414;DHT22;33163;0.000;0.000;2023-07-22T11:19:22;21.30;71.70
47414;DHT22;33163;0.000;0.000;2023-07-22T11:21:49;21.30;71.20
47414;DHT22;33163;0.000;0.000;2023-07-22T11:24:16;21.30;70.70
47414;DHT22;33163;0.000;0.000;2023-07-22T11:26:44;21.30;70.80
47414;DHT22;33163;0.000;0.000;2023-07-22T11:29:11;21.30;71.60
47414;DHT22;33163;0.000;0.000;2023-07-22T11:31:38;21.40;70.90
47414;DHT22;33163;0.000;0.000;2023-07-22T11:34:07;21.30;69.70
47414;DHT22;33163;0.000;0.000;2023-07-22T11:36:35;21.30;69.30
47414;DHT22;33163;0.000;0.000;2023-07-22T11:39:02;21.30;68.90
47414;DHT22;33163;0.000;0.000;2023-07-22T11:41:29;21.30;68.80
47414;DHT22;33163;0.000;0.000;2023-07-22T11:43:57;21.30;68.60
47414;DHT22;33163;0.000;0.000;2023-07-22T11:46:23;21.30;68.10
47414;DHT22;33163;0.000;0.000;2023-07-22T11:48:50;21.30;67.50
47414;DHT22;33163;0.000;0.000;2023-07-22T11:51:18;21.30;67.20
47414;DHT22;33163;0.000;0.000;2023-07-22T11:53:47;21.30;67.30
47414;DHT22;33163;0.000;0.000;2023-07-22T11:56:18;21.30;66.90
47414;DHT22;33163;0.000;0.000;2023-07-22T11:58:48;21.30;66.60
47414;DHT22;33163;0.000;0.000;2023-07-22T12:01:14;21.30;65.80
47414;DHT22;33163;0.000;0.000;2023-07-22T12:03:41;21.30;65.20
47414;DHT22;33163;0.000;0.000;2023-07-22T12:06:08;21.20;65.30
47414;DHT22;33163;0.000;0.000;2023-07-22T12:08:34;21.20;65.60
47414;DHT22;33163;0.000;0.000;2023-07-22T12:11:03;21.20;65.60
47414;DHT22;33163;0.000;0.000;2023-07-22T12:13:35;21.20;65.70
47414;DHT22;33163;0.000;0.000;2023-07-22T12:16:02;21.20;65.60
47414;DHT22;33163;0.000;0.000;2023-07-22T12:18:40;21.20;65.30
47414;DHT22;33163;0.000;0.000;2023-07-22T12:21:07;21.20;65.50
47414;DHT22;33163;0.000;0.000;2023-07-22T12:23:35;21.20;65.80
47414;DHT22;33163;0.000;0.000;2023-07-22T12:26:03;21.20;65.20
47414;DHT22;33163;0.000;0.000;2023-07-22T12:28:30;21.20;65.40
47414;DHT22;33163;0.000;0.000;2023-07-22T12:30:57;21.20;65.00
47414;DHT22;33163;0.000;0.000;2023-07-22T12:33:23;21.20;64.60
47414;DHT22;33163;0.000;0.000;2023-07-22T12:35:50;21.20;64.20
47414;DHT22;33163;0.000;0.000;2023-07-22T12:38:17;21.10;64.30
47414;DHT22;33163;0.000;0.000;2023-07-22T12:40:43;21.10;64.70
47414;DHT22;33163;0.000;0.000;2023-07-22T12:43:11;21.10;64.80
47414;DHT22;33163;0.000;0.000;2023-07-22T12:45:38;21.20;65.00
47414;DHT22;33163;0.000;0.000;2023-07-22T12:48:05;21.20;65.20
47414;DHT22;33163;0.000;0.000;2023-07-22T12:50:32;21.10;65.20
47414;DHT22;33163;0.000;0.000;2023-07-22T12:52:58;21.20;65.50
47414;DHT22;33163;0.000;0.000;2023-07-22T12:55:25;21.20;65.30
47414;DHT22;33163;0.000;0.000;2023-07-22T12:57:53;21.10;65.20
47414;DHT22;33163;0.000;0.000;2023-07-22T13:00:21;21.20;65.20
47414;DHT22;33163;0.000;0.000;2023-07-22T13:02:47;21.20;65.20
47414;DHT22;33163;0.000;0.000;2023-07-22T13:05:14;21.10;65.20
47414;DHT22;33163;0.000;0.000;2023-07-22T13:07:40;21.10;65.30
47414;DHT22;33163;0.000;0.000;2023-07-22T13:10:07;21.10;65.80
47414;DHT22;33163;0.000;0.000;2023-07-22T13:12:36;21.10;65.30
47414;DHT22;33163;0.000;0.000;2023-07-22T13:15:03;21.10;65.60
47414;DHT22;33163;0.000;0.000;2023-07-22T13:17:31;21.20;65.80
47414;DHT22;33163;0.000;0.000;2023-07-22T13:19:58;21.10;65.80
47414;DHT22;33163;0.000;0.000;2023-07-22T13:22:24;21.10;65.60
47414;DHT22;33163;0.000;0.000;2023-07-22T13:24:51;21.20;65.60
47414;DHT22;33163;0.000;0.000;2023-07-22T13:27:18;21.10;65.80
47414;DHT22;33163;0.000;0.000;2023-07-22T13:29:44;21.10;65.50
47414;DHT22;33163;0.000;0.000;2023-07-22T13:32:11;21.20;65.50
47414;DHT22;33163;0.000;0.000;2023-07-22T13:34:39;21.20;65.20
47414;DHT22;33163;0.000;0.000;2023-07-22T13:37:06;21.20;65.20
47414;DHT22;33163;0.000;0.000;2023-07-22T13:39:32;21.20;65.30
47414;DHT22;33163;0.000;0.000;2023-07-22T13:41:59;21.20;65.10
47414;DHT22;33163;0.000;0.000;2023-07-22T13:44:26;21.20;65.10
47414;DHT22;33163;0.000;0.000;2023-07-22T13:46:52;21.20;65.60
47414;DHT22;33163;0.000;0.000;2023-07-22T13:49:19;21.20;65.90
47414;DHT22;33163;0.000;0.000;2023-07-22T13:51:47;21.30;66.00
47414;DHT22;33163;0.000;0.000;2023-07-22T13:54:13;21.30;65.90
47414;DHT22;33163;0.000;0.000;2023-07-22T13:56:41;21.30;66.90
47414;DHT22;33163;0.000;0.000;2023-07-22T13:59:08;21.30;66.20
47414;DHT22;33163;0.000;0.000;2023-07-22T14:01:35;21.40;66.30
47414;DHT22;33163;0.000;0.000;2023-07-22T14:04:01;21.40;66.30
47414;DHT22;33163;0.000;0.000;2023-07-22T14:06:28;21.40;66.30
47414;DHT22;33163;0.000;0.000;2023-07-22T14:08:56;21.40;66.30
47414;DHT22;33163;0.000;0.000;2023-07-22T14:11:23;21.40;66.00
47414;DHT22;33163;0.000;0.000;2023-07-22T14:13:49;21.50;66.20
47414;DHT22;33163;0.000;0.000;2023-07-22T14:16:17;21.40;65.80
47414;DHT22;33163;0.000;0.000;2023-07-22T14:18:44;21.40;66.10
47414;DHT22;33163;0.000;0.000;2023-07-22T14:21:11;21.40;65.60
47414;DHT22;33163;0.000;0.000;2023-07-22T14:23:37;21.40;65.40
47414;DHT22;33163;0.000;0.000;2023-07-22T14:26:05;21.40;65.70
47414;DHT22;33163;0.000;0.000;2023-07-22T14:28:32;21.40;65.70
47414;DHT22;33163;0.000;0.000;2023-07-22T14:30:59;21.40;65.80
47414;DHT22;33163;0.000;0.000;2023-07-22T14:33:26;21.40;66.00
47414;DHT22;33163;0.000;0.000;2023-07-22T14:35:52;21.40;66.00
47414;DHT22;33163;0.000;0.000;2023-07-22T14:38:19;21.40;66.20
47414;DHT22;33163;0.000;0.000;2023-07-22T14:40:45;21.30;66.20
47414;DHT22;33163;0.000;0.000;2023-07-22T14:43:13;21.30;66.40
47414;DHT22;33163;0.000;0.000;2023-07-22T14:45:40;21.30;66.50
47414;DHT22;33163;0.000;0.000;2023-07-22T14:48:06;21.30;66.50
47414;DHT22;33163;0.000;0.000;2023-07-22T14:50:33;21.30;66.40
47414;DHT22;33163;0.000;0.000;2023-07-22T14:53:00;21.30;66.50
47414;DHT22;33163;0.000;0.000;2023-07-22T14:55:26;21.30;66.40
47414;DHT22;33163;0.000;0.000;2023-07-22T14:57:53;21.40;66.30
47414;DHT22;33163;0.000;0.000;2023-07-22T15:00:21;21.40;66.40
47414;DHT22;33163;0.000;0.000;2023-07-22T15:02:48;21.30;66.00
47414;DHT22;33163;0.000;0.000;2023-07-22T15:05:15;21.40;65.80
47414;DHT22;33163;0.000;0.000;2023-07-22T15:07:41;21.30;65.30
47414;DHT22;33163;0.000;0.000;2023-07-22T15:10:08;21.40;65.20
47414;DHT22;33163;0.000;0.000;2023-07-22T15:12:34;21.30;64.90
47414;DHT22;33163;0.000;0.000;2023-07-22T15:15:01;21.40;64.80
47414;DHT22;33163;0.000;0.000;2023-07-22T15:17:29;21.40;64.90
47414;DHT22;33163;0.000;0.000;2023-07-22T15:19:57;21.40;64.80
47414;DHT22;33163;0.000;0.000;2023-07-22T15:22:23;21.40;64.60
47414;DHT22;33163;0.000;0.000;2023-07-22T15:24:50;21.40;64.90
47414;DHT22;33163;0.000;0.000;2023-07-22T15:27:16;21.40;64.80
47414;DHT22;33163;0.000;0.000;2023-07-22T15:29:44;21.40;65.10
47414;DHT22;33163;0.000;0.000;2023-07-22T15:32:11;21.40;65.10
47414;DHT22;33163;0.000;0.000;2023-07-22T15:34:39;21.40;65.10
47414;DHT22;33163;0.000;0.000;2023-07-22T15:37:06;21.40;65.10
47414;DHT22;33163;0.000;0.000;2023-07-22T15:39:32;21.40;65.30
47414;DHT22;33163;0.000;0.000;2023-07-22T15:41:59;21.40;65.40
47414;DHT22;33163;0.000;0.000;2023-07-22T15:44:26;21.40;65.40
47414;DHT22;33163;0.000;0.000;2023-07-22T15:46:53;21.40;65.60